METAR Analyzer

一覧表示

Hello, Guest. (Login)

RJSA/AOJ  -  青森

観測日時
2022-09-30 06:00 (UTC) (55分前)
気温
24
露点
16
湿数
8
相対湿度
60.9%
QNH
1016hPa
推定現地気圧
992.4hPa
推定海面気圧
1015.2hPa
体感温度
18.7
(無風時)
23.1
HI
24
気温前日比
+2
体感温度前日比
+3.8
HI前日比
+1.9
水平視程
>10000m
鉛直視程
データなし
雲底高度
No dense clouds
V/I
VMC (VFR)
RVR
No RVR data
卓越風
4kt from 320° (280° ~ 10°)
ガスト
No gust
降水
報告なし
その他の天気
報告なし
少しの雲 @ 3000ft AGL

RJSA 300600Z 32004KT 280V010 9999 FEW030 24/16 Q1016

RJSO  -  大湊基地

観測日時
2022-09-30 06:00 (UTC) (55分前)
気温
24
露点
17
湿数
7
相対湿度
64.9%
QNH
1016.3hPa
推定現地気圧
1015.5hPa
推定海面気圧
1016.3hPa
体感温度
18.1
(無風時)
23.3
HI
24.2
気温前日比
+1
体感温度前日比
+2.9
HI前日比
+1.4
水平視程
>10000m
鉛直視程
データなし
雲底高度
No dense clouds
V/I
VMC (VFR)
RVR
No RVR data
卓越風
6kt from 180°
ガスト
No gust
降水
報告なし
その他の天気
報告なし
少しの(2/8) 積雲 @ 3000ft AGL

RJSO 300600Z 18006KT 9999 FEW030 24/17 Q1016 RMK 2CU030 A3001

RJSM/MSJ  -  三沢飛行場

観測日時
2022-09-30 06:00 (UTC) (55分前)
気温
23
露点
15
湿数
8
相対湿度
60.7%
QNH
1016.6hPa
推定現地気圧
1012.3hPa
推定海面気圧
1016.5hPa
体感温度
15.9
(無風時)
22.3
HI
22.9
気温前日比
-1
体感温度前日比
-0.5
HI前日比
-1
水平視程
>10000m
鉛直視程
データなし
雲底高度
No dense clouds
V/I
VMC (VFR)
RVR
No RVR data
卓越風
9kt from 110°
ガスト
No gust
降水
報告なし
その他の天気
報告なし
少しの(1/8) 積雲 @ 3000ft AGL

RJSM 300600Z 11009KT 9999 FEW030 23/15 Q1016 RMK 1CU030 A3002

RJSH/HHE  -  八戸飛行場

観測日時
2022-09-30 06:00 (UTC) (55分前)
気温
24
露点
14
湿数
10
相対湿度
53.6%
QNH
1015.9hPa
推定現地気圧
1010.4hPa
推定海面気圧
1015.8hPa
体感温度
16.8
(無風時)
22.7
HI
23.9
気温前日比
-2
体感温度前日比
-3.4
HI前日比
-2
水平視程
>10000m
鉛直視程
データなし
雲底高度
No dense clouds
V/I
VMC (VFR)
RVR
No RVR data
卓越風
9kt from 90°
ガスト
No gust
降水
報告なし
その他の天気
報告なし
少しの(1/8) 積雲 @ 3000ft AGL

RJSH 300600Z 09009KT 9999 FEW030 24/14 Q1016 RMK 1CU030 A3000

RJSI/HNA  -  花巻

観測日時
2022-09-30 06:00 (UTC) (55分前)
気温
26
露点
16
湿数
10
相対湿度
54.1%
QNH
1016hPa
推定現地気圧
1005.2hPa
推定海面気圧
1015.6hPa
体感温度
20.1
(無風時)
24.2
HI
26.1
気温前日比
±0
体感温度前日比
+0.3
HI前日比
±0
水平視程
>10000m
鉛直視程
データなし
雲底高度
No dense clouds
V/I
VMC (VFR)
RVR
No RVR data
卓越風
5kt from 170° (130° ~ 210°)
ガスト
No gust
降水
報告なし
その他の天気
報告なし
少しの雲 @ 3000ft AGL

RJSI 300600Z 17005KT 130V210 9999 FEW030 26/16 Q1016

RJSR/ONJ  -  大館能代

観測日時
2022-09-30 06:00 (UTC) (55分前)
気温
25
露点
18
湿数
7
相対湿度
65.1%
QNH
1016hPa
推定現地気圧
1005.9hPa
推定海面気圧
1015.6hPa
体感温度
20.5
(無風時)
24.1
HI
25.3
気温前日比
+3
体感温度前日比
+5.2
HI前日比
+3.1
水平視程
>10000m
鉛直視程
データなし
雲底高度
No dense clouds
V/I
VMC (VFR)
RVR
No RVR data
卓越風
3kt from 340° (260° ~ 40°)
ガスト
No gust
降水
報告なし
その他の天気
報告なし
少しの雲 @ 3000ft AGL / 散在する雲 @ 不明な高さ

RJSR 300600Z 34003KT 260V040 9999 FEW030 SCT/// 25/18 Q1016

RJSK/AXT  -  秋田

観測日時
2022-09-30 06:00 (UTC) (55分前)
気温
25
露点
10
湿数
15
相対湿度
38.8%
QNH
1016hPa
推定現地気圧
1004.8hPa
推定海面気圧
1015.5hPa
体感温度
19.8
(無風時)
22.5
HI
24.6
気温前日比
+2
体感温度前日比
+3.9
HI前日比
+1.7
水平視程
>10000m
鉛直視程
データなし
雲底高度
No dense clouds
V/I
VMC (VFR)
RVR
No RVR data
卓越風
2kt from VRB
ガスト
No gust
降水
報告なし
その他の天気
報告なし
報告なし

RJSK 300600Z VRB02KT CAVOK 25/10 Q1016

RJSS/SDJ  -  仙台

観測日時
2022-09-30 06:00 (UTC) (55分前)
気温
23
露点
18
湿数
5
相対湿度
73.5%
QNH
1016hPa
推定現地気圧
1015.8hPa
推定海面気圧
1016.0hPa
体感温度
17.2
(無風時)
23
HI
23.3
気温前日比
-1
体感温度前日比
+0.6
HI前日比
-0.6
水平視程
>10000m
鉛直視程
データなし
雲底高度
No dense clouds
V/I
VMC (VFR)
RVR
No RVR data
卓越風
6kt from 110° (70° ~ 160°)
ガスト
No gust
降水
報告なし
その他の天気
報告なし
少しの雲 @ 3000ft AGL

RJSS 300600Z 11006KT 070V160 9999 FEW030 23/18 Q1016

RJST  -  松島基地

観測日時
2022-09-30 06:00 (UTC) (55分前)
気温
23
露点
17
湿数
6
相対湿度
69%
QNH
1016.6hPa
推定現地気圧
1016.4hPa
推定海面気圧
1016.6hPa
体感温度
17
(無風時)
22.8
HI
23.2
気温前日比
-3
体感温度前日比
-2.3
HI前日比
-2.7
水平視程
>10000m
鉛直視程
データなし
雲底高度
No dense clouds
V/I
VMC (VFR)
RVR
No RVR data
卓越風
6kt from 140°
ガスト
No gust
降水
報告なし
その他の天気
報告なし
少しの(1/8) 積雲 @ 3000ft AGL

RJST 300600Z 14006KT 9999 FEW030 23/17 Q1016 RMK 1CU030 A3002

RJSU  -  霞目飛行場・駐屯地

観測日時
2022-09-30 06:00 (UTC) (55分前)
気温
24
露点
17
湿数
7
相対湿度
64.9%
QNH
1016.3hPa
推定現地気圧
1015.5hPa
推定海面気圧
1016.3hPa
体感温度
18.4
(無風時)
23.3
HI
24.2
気温前日比
-1
体感温度前日比
±0
HI前日比
-0.9
水平視程
>10000m
鉛直視程
データなし
雲底高度
No dense clouds
V/I
VMC (VFR)
RVR
No RVR data
卓越風
5kt from 140°
ガスト
No gust
降水
報告なし
その他の天気
報告なし
少しの(1/8) 積雲 @ 3000ft AGL

RJSU 300600Z 14005KT 9999 FEW030 24/17 Q1016 RMK 1CU030 A3001

RJSY/SYO  -  庄内

観測日時
2022-09-30 06:00 (UTC) (55分前)
気温
23
露点
15
湿数
8
相対湿度
60.7%
QNH
1015hPa
推定現地気圧
1012.4hPa
推定海面気圧
1015.0hPa
体感温度
17.1
(無風時)
22.3
HI
22.9
気温前日比
±0
体感温度前日比
+0.7
HI前日比
-0.3
水平視程
>10000m
鉛直視程
データなし
雲底高度
No dense clouds
V/I
VMC (VFR)
RVR
No RVR data
卓越風
5kt from 350° (270° ~ 60°)
ガスト
No gust
降水
報告なし
その他の天気
報告なし
少しの雲 @ 3000ft AGL

RJSY 300600Z 35005KT 270V060 9999 FEW030 23/15 Q1015

RJSC/GAJ  -  山形

観測日時
2022-09-30 06:00 (UTC) (55分前)
気温
27
露点
15
湿数
12
相対湿度
47.8%
QNH
1015hPa
推定現地気圧
1002.4hPa
推定海面気圧
1014.4hPa
体感温度
20.9
(無風時)
24.4
HI
27.3
気温前日比
+2
体感温度前日比
+3.1
HI前日比
+2.3
水平視程
>10000m
鉛直視程
データなし
雲底高度
No dense clouds
V/I
VMC (VFR)
RVR
No RVR data
卓越風
5kt from 350° (300° ~ 40°)
ガスト
No gust
降水
報告なし
その他の天気
報告なし
少しの雲 @ 4000ft AGL

RJSC 300600Z 35005KT 300V040 9999 FEW040 27/15 Q1015

RJSF/FKS  -  福島

観測日時
2022-09-30 06:00 (UTC) (55分前)
気温
26
露点
11
湿数
15
相対湿度
39%
QNH
1016hPa
推定現地気圧
972.0hPa
推定海面気圧
1014.0hPa
体感温度
19.7
(無風時)
23.2
HI
25.7
気温前日比
+1
体感温度前日比
+1.5
HI前日比
+1.4
水平視程
>10000m
鉛直視程
データなし
雲底高度
No dense clouds
V/I
VMC (VFR)
RVR
No RVR data
卓越風
4kt from 130° (80° ~ 170°)
ガスト
No gust
降水
報告なし
その他の天気
報告なし
少しの雲 @ 4000ft AGL

RJSF 300600Z 13004KT 080V170 9999 FEW040 26/11 Q1016

103msec